Time;durP1;ratioP1;P1;durP2;ratioP2;P2;SDS_P1;SDS_P2;PMS_P1;PMS_P2;Temp;Humidity;BMP_temperature;BMP_pressure;BME280_temperature;BME280_humidity;BME280_pressure;Samples;Min_cycle;Max_cycle;Signal;HPM_P1;HPM_P2
2023/06/19 00:00:20;;;;;;;2.45;2.15;;;27.20;56.90;;;;;;5053920;28;20036;-75
2023/06/19 00:02:46;;;;;;;2.00;1.90;;;27.20;56.90;;;;;;5051946;28;20048;-75
2023/06/19 00:05:13;;;;;;;2.58;1.95;;;27.20;56.90;;;;;;5052570;28;20091;-75
2023/06/19 00:07:39;;;;;;;2.08;1.90;;;27.30;56.90;;;;;;5053371;28;20043;-72
2023/06/19 00:10:06;;;;;;;3.30;2.05;;;27.20;57.00;;;;;;5053414;28;20021;-72
2023/06/19 00:12:33;;;;;;;2.33;2.13;;;27.10;56.90;;;;;;5053245;28;20029;-73
2023/06/19 00:14:59;;;;;;;2.05;1.85;;;27.20;57.00;;;;;;5053155;28;20032;-72
2023/06/19 00:17:28;;;;;;;2.03;1.70;;;27.00;57.00;;;;;;5053352;28;20048;-72
2023/06/19 00:19:54;;;;;;;2.13;1.80;;;27.20;57.00;;;;;;5052774;28;20033;-72
2023/06/19 00:22:20;;;;;;;2.38;2.05;;;27.10;57.20;;;;;;5051714;28;20165;-71
2023/06/19 00:24:46;;;;;;;2.38;1.80;;;27.20;57.30;;;;;;5052959;28;20469;-72
2023/06/19 00:27:12;;;;;;;1.58;1.48;;;27.10;57.30;;;;;;5051496;28;20040;-72
2023/06/19 00:29:38;;;;;;;1.70;1.60;;;27.10;57.40;;;;;;5051774;28;20044;-72
2023/06/19 00:32:05;;;;;;;3.72;1.58;;;27.20;57.50;;;;;;5051534;28;20093;-73
2023/06/19 00:34:31;;;;;;;3.85;1.60;;;27.10;57.50;;;;;;5051771;28;20025;-73
2023/06/19 00:36:58;;;;;;;4.55;1.55;;;27.20;57.50;;;;;;5052716;28;20504;-73
2023/06/19 00:39:25;;;;;;;1.58;1.48;;;27.20;57.60;;;;;;5053139;28;20033;-72
2023/06/19 00:41:55;;;;;;;2.92;1.73;;;27.20;57.60;;;;;;5034730;28;20036;-72
2023/06/19 00:44:21;;;;;;;2.17;1.52;;;27.20;57.60;;;;;;5052786;28;20345;-73
2023/06/19 00:46:54;;;;;;;1.70;1.60;;;27.20;57.70;;;;;;5052692;28;20401;-72
2023/06/19 00:49:21;;;;;;;1.40;1.30;;;27.20;57.70;;;;;;5051395;28;20119;-73
2023/06/19 00:51:47;;;;;;;1.85;1.65;;;27.30;57.70;;;;;;5052684;28;20025;-72
2023/06/19 00:54:15;;;;;;;1.95;1.75;;;27.10;57.70;;;;;;5053646;28;20416;-73
2023/06/19 00:56:41;;;;;;;2.47;1.85;;;27.10;57.80;;;;;;5053408;28;20098;-72
2023/06/19 00:59:16;;;;;;;2.10;1.90;;;27.20;57.80;;;;;;5036543;28;20055;-74
2023/06/19 01:01:42;;;;;;;1.58;1.40;;;27.10;57.80;;;;;;5069991;28;20431;-72
2023/06/19 01:04:08;;;;;;;3.72;1.60;;;27.10;57.80;;;;;;5069742;28;20539;-73
2023/06/19 01:06:57;;;;;;;1.58;1.48;;;27.20;57.80;;;;;;5069670;28;20044;-73
2023/06/19 01:09:29;;;;;;;2.58;1.73;;;27.30;57.80;;;;;;5069915;28;20048;-72
2023/06/19 01:12:01;;;;;;;1.67;1.38;;;27.20;57.80;;;;;;5069422;28;20048;-73
2023/06/19 01:14:43;;;;;;;2.58;1.98;;;27.00;57.80;;;;;;5052085;28;20032;-73
2023/06/19 01:17:10;;;;;;;1.67;1.58;;;27.10;57.80;;;;;;5036135;28;20037;-72
2023/06/19 01:19:36;;;;;;;1.70;1.60;;;27.00;57.80;;;;;;5069584;28;20158;-72
2023/06/19 01:22:04;;;;;;;1.92;1.73;;;27.00;57.90;;;;;;5052692;28;20061;-73
2023/06/19 01:24:30;;;;;;;1.77;1.50;;;27.10;58.00;;;;;;5052983;28;20045;-72
2023/06/19 01:26:57;;;;;;;1.58;1.45;;;27.00;58.00;;;;;;5069579;28;20047;-72
2023/06/19 01:29:23;;;;;;;1.83;1.73;;;27.00;58.10;;;;;;5069138;28;20059;-72
2023/06/19 01:32:04;;;;;;;1.98;1.73;;;27.20;58.10;;;;;;5059414;28;20037;-72
2023/06/19 01:34:31;;;;;;;2.65;2.10;;;27.00;58.10;;;;;;5050321;28;20511;-72
2023/06/19 01:36:58;;;;;;;3.45;1.73;;;27.20;58.10;;;;;;5050108;28;20116;-72
2023/06/19 01:39:25;;;;;;;1.92;1.73;;;27.10;58.20;;;;;;5050303;28;20024;-73
2023/06/19 01:41:52;;;;;;;3.67;1.60;;;27.20;58.20;;;;;;5051953;28;20033;-73
2023/06/19 01:44:18;;;;;;;1.63;1.52;;;27.10;58.20;;;;;;5051287;28;20087;-72
2023/06/19 01:46:50;;;;;;;1.60;1.50;;;27.00;58.20;;;;;;5017334;28;20048;-72
2023/06/19 01:49:17;;;;;;;2.85;1.63;;;27.00;58.20;;;;;;5049998;28;20045;-72
2023/06/19 01:51:44;;;;;;;1.70;1.45;;;27.20;58.20;;;;;;5033965;28;20047;-72
2023/06/19 01:54:10;;;;;;;1.90;1.50;;;27.10;58.20;;;;;;5051315;28;20024;-72
2023/06/19 01:56:37;;;;;;;2.13;1.63;;;27.20;58.20;;;;;;5049128;28;20044;-73
2023/06/19 01:59:03;;;;;;;1.48;1.33;;;27.10;58.20;;;;;;5031882;28;20041;-73
2023/06/19 02:01:29;;;;;;;5.35;1.50;;;27.00;58.20;;;;;;5032065;28;20081;-73
2023/06/19 02:03:55;;;;;;;1.30;1.20;;;27.00;58.20;;;;;;5048261;28;20037;-72
2023/06/19 02:06:21;;;;;;;2.45;1.70;;;27.10;58.20;;;;;;5065011;28;20045;-72
2023/06/19 02:08:48;;;;;;;4.85;1.45;;;27.00;58.20;;;;;;5048518;28;20045;-72
2023/06/19 02:11:14;;;;;;;1.60;1.50;;;27.00;58.20;;;;;;5048008;28;20500;-72
2023/06/19 02:13:40;;;;;;;2.25;1.50;;;27.00;58.20;;;;;;5031618;28;20037;-72
2023/06/19 02:16:06;;;;;;;5.05;1.60;;;26.90;57.60;;;;;;5065121;28;20048;-73
2023/06/19 02:18:33;;;;;;;1.45;1.25;;;27.00;58.20;;;;;;5031796;28;20037;-72
2023/06/19 02:20:59;;;;;;;1.67;1.48;;;27.00;58.40;;;;;;5065303;28;20044;-71
2023/06/19 02:23:25;;;;;;;1.63;1.15;;;27.00;58.40;;;;;;5048225;28;20048;-72
2023/06/19 02:25:51;;;;;;;1.95;1.27;;;27.00;58.50;;;;;;5031815;28;20045;-72
2023/06/19 02:28:17;;;;;;;1.60;1.10;;;27.00;58.50;;;;;;5050449;28;20550;-72
2023/06/19 02:30:43;;;;;;;1.60;1.42;;;27.10;58.50;;;;;;5049837;28;20111;-72
2023/06/19 02:33:09;;;;;;;3.00;1.42;;;27.10;58.50;;;;;;5050717;28;20048;-71
2023/06/19 02:35:35;;;;;;;1.38;1.27;;;27.00;58.60;;;;;;5049477;28;20465;-72
2023/06/19 02:38:01;;;;;;;2.20;1.38;;;27.10;58.50;;;;;;5050929;28;20029;-73
2023/06/19 02:40:27;;;;;;;1.48;1.38;;;27.00;58.60;;;;;;5051283;28;20039;-72
2023/06/19 02:42:53;;;;;;;1.45;1.20;;;27.20;58.60;;;;;;5049628;28;20087;-72
2023/06/19 02:45:19;;;;;;;1.25;1.15;;;27.10;58.60;;;;;;5050810;28;20032;-73
2023/06/19 02:47:47;;;;;;;1.40;1.30;;;27.20;58.60;;;;;;5050782;28;20057;-71
2023/06/19 02:50:13;;;;;;;2.88;1.40;;;27.10;58.60;;;;;;5049449;28;20068;-72
2023/06/19 02:52:39;;;;;;;1.95;1.40;;;27.00;58.60;;;;;;5049776;28;20029;-73
2023/06/19 02:55:07;;;;;;;1.65;1.40;;;27.00;58.60;;;;;;5049431;28;20107;-72
2023/06/19 02:57:33;;;;;;;1.65;1.50;;;27.10;58.60;;;;;;5050791;28;20033;-72
2023/06/19 02:59:59;;;;;;;1.55;1.45;;;27.00;58.60;;;;;;5049231;28;20040;-71
2023/06/19 03:02:26;;;;;;;2.15;1.67;;;26.90;57.90;;;;;;5050765;28;20382;-72
2023/06/19 03:04:52;;;;;;;2.17;1.95;;;27.10;58.50;;;;;;5049169;28;20033;-72
2023/06/19 03:07:18;;;;;;;2.70;1.55;;;26.90;57.90;;;;;;5050761;28;20115;-72
2023/06/19 03:09:44;;;;;;;4.82;1.45;;;27.00;58.50;;;;;;5032794;28;20116;-73
2023/06/19 03:12:10;;;;;;;2.15;1.52;;;27.00;58.50;;;;;;5050744;28;20040;-72
2023/06/19 03:14:37;;;;;;;1.67;1.58;;;27.10;58.50;;;;;;5049235;28;20029;-73
2023/06/19 03:17:03;;;;;;;1.55;1.45;;;27.00;58.50;;;;;;5049175;28;20068;-72
2023/06/19 03:19:30;;;;;;;1.23;1.17;;;27.10;58.60;;;;;;5049264;28;20093;-72
2023/06/19 03:21:56;;;;;;;2.83;1.52;;;27.00;58.60;;;;;;5048941;28;20136;-72
2023/06/19 03:24:22;;;;;;;4.00;1.65;;;27.00;58.60;;;;;;5049333;28;20040;-73
2023/06/19 03:26:51;;;;;;;2.00;1.80;;;26.90;58.10;;;;;;5048960;28;20033;-73
2023/06/19 03:29:17;;;;;;;1.85;1.67;;;27.00;58.70;;;;;;5049107;28;20113;-72
2023/06/19 03:31:54;;;;;;;1.90;1.70;;;27.00;58.70;;;;;;5050249;28;20128;-73
2023/06/19 03:34:25;;;;;;;1.65;1.48;;;27.00;58.70;;;;;;5049148;28;20049;-73
2023/06/19 03:36:52;;;;;;;4.03;2.20;;;27.10;58.80;;;;;;5047629;28;20045;-73
2023/06/19 03:39:18;;;;;;;2.00;1.70;;;27.00;58.80;;;;;;5035015;28;20045;-72
2023/06/19 03:41:44;;;;;;;1.85;1.75;;;27.20;58.80;;;;;;5034762;28;20041;-72
2023/06/19 03:44:10;;;;;;;3.55;1.50;;;27.10;58.80;;;;;;5034613;28;20457;-73
2023/06/19 03:46:36;;;;;;;2.58;1.88;;;27.00;58.70;;;;;;5018211;28;20094;-72
2023/06/19 03:49:04;;;;;;;1.42;1.33;;;27.00;58.70;;;;;;5034532;28;20060;-72
2023/06/19 03:51:30;;;;;;;1.50;1.40;;;27.00;58.70;;;;;;5050997;28;20056;-72
2023/06/19 03:53:56;;;;;;;1.88;1.40;;;27.10;58.70;;;;;;5018256;28;20036;-72
2023/06/19 03:56:22;;;;;;;2.17;1.83;;;27.00;58.70;;;;;;4975845;28;20805;-72
2023/06/19 03:58:48;;;;;;;1.73;1.63;;;27.00;58.70;;;;;;4991949;28;20046;-72
2023/06/19 04:01:14;;;;;;;6.63;1.90;;;27.00;58.70;;;;;;5008216;28;20046;-72
2023/06/19 04:03:40;;;;;;;2.85;1.70;;;27.00;58.70;;;;;;4991729;28;20117;-72
2023/06/19 04:06:06;;;;;;;1.70;1.60;;;27.00;58.70;;;;;;4988273;28;20058;-72
2023/06/19 04:08:33;;;;;;;1.52;1.42;;;27.10;58.60;;;;;;4975426;28;20502;-72
2023/06/19 04:10:59;;;;;;;5.13;1.38;;;26.90;58.10;;;;;;4991801;28;20140;-72
2023/06/19 04:13:28;;;;;;;1.45;1.35;;;27.00;58.70;;;;;;4991929;28;20042;-75
2023/06/19 04:15:54;;;;;;;3.67;1.60;;;27.00;60.50;;;;;;4972359;28;20053;-76
2023/06/19 04:18:20;;;;;;;1.63;1.40;;;27.20;62.20;;;;;;4989982;28;20109;-76
2023/06/19 04:20:45;;;;;;;3.42;1.60;;;27.60;69.80;;;;;;4975360;28;20050;-76
2023/06/19 04:23:12;;;;;;;2.42;2.10;;;27.70;65.50;;;;;;4988737;28;20140;-75
2023/06/19 04:25:39;;;;;;;2.95;1.90;;;27.70;61.90;;;;;;4988758;28;20139;-76
2023/06/19 04:28:05;;;;;;;2.22;2.03;;;27.70;60.50;;;;;;5019096;28;20512;-76
2023/06/19 04:30:31;;;;;;;1.73;1.63;;;27.60;59.60;;;;;;5011432;28;20660;-76
2023/06/19 04:32:58;;;;;;;1.83;1.63;;;27.40;59.50;;;;;;4995347;28;20402;-76
2023/06/19 04:35:24;;;;;;;2.08;1.80;;;27.40;59.30;;;;;;5011702;28;20057;-76
2023/06/19 04:37:51;;;;;;;2.00;1.80;;;27.30;59.10;;;;;;4995443;28;20453;-76
2023/06/19 04:40:17;;;;;;;3.55;1.95;;;27.40;59.00;;;;;;4979058;28;20038;-76
2023/06/19 04:42:43;;;;;;;3.55;1.77;;;27.30;58.90;;;;;;5017402;28;20507;-76
2023/06/19 04:45:09;;;;;;;1.83;1.73;;;27.40;58.80;;;;;;5034214;28;20492;-76
2023/06/19 04:47:36;;;;;;;1.70;1.60;;;27.40;58.80;;;;;;5046169;28;20485;-75
2023/06/19 04:50:02;;;;;;;4.18;2.20;;;27.40;58.90;;;;;;5030241;28;20128;-74
2023/06/19 04:52:28;;;;;;;2.42;2.10;;;27.30;59.10;;;;;;5030481;28;20052;-78
2023/06/19 04:54:54;;;;;;;2.10;1.80;;;27.30;58.80;;;;;;5015029;28;20037;-78
2023/06/19 04:57:20;;;;;;;2.55;2.35;;;27.30;58.10;;;;;;5031268;28;20452;-77
2023/06/19 04:59:46;;;;;;;3.78;2.33;;;27.30;57.60;;;;;;5031203;28;20033;-78
2023/06/19 05:02:12;;;;;;;2.88;2.30;;;27.20;55.70;;;;;;4998469;28;20107;-76
2023/06/19 05:04:38;;;;;;;2.53;2.30;;;27.30;55.20;;;;;;5030243;28;20033;-78
2023/06/19 05:07:04;;;;;;;3.33;2.00;;;27.10;55.80;;;;;;5030414;28;20045;-75
2023/06/19 05:09:30;;;;;;;3.10;2.28;;;27.10;56.10;;;;;;5030170;28;20041;-78
2023/06/19 05:11:57;;;;;;;5.53;1.70;;;27.10;56.20;;;;;;5013918;28;20106;-76
2023/06/19 05:14:23;;;;;;;4.38;2.05;;;27.10;56.50;;;;;;5030157;28;20120;-76
2023/06/19 05:16:49;;;;;;;2.78;2.40;;;27.00;56.40;;;;;;5030059;28;20120;-75
2023/06/19 05:19:15;;;;;;;2.45;2.25;;;27.00;56.30;;;;;;5045485;28;20547;-75
2023/06/19 05:21:41;;;;;;;5.95;3.00;;;27.00;56.40;;;;;;5049668;28;20151;-76
2023/06/19 05:24:07;;;;;;;3.00;2.63;;;27.00;56.30;;;;;;5033207;28;20583;-75
2023/06/19 05:26:33;;;;;;;3.40;2.42;;;27.00;56.40;;;;;;5050260;28;20073;-77
2023/06/19 05:28:59;;;;;;;11.43;5.00;;;27.00;56.20;;;;;;5052410;28;20087;-76
2023/06/19 05:31:25;;;;;;;4.97;4.50;;;27.10;57.30;;;;;;5034282;28;20396;-74
2023/06/19 05:33:51;;;;;;;2.85;2.65;;;27.00;57.50;;;;;;5051792;28;20144;-74
2023/06/19 05:36:17;;;;;;;4.55;3.45;;;27.10;57.60;;;;;;5050665;28;20031;-76
2023/06/19 05:38:43;;;;;;;6.10;4.10;;;27.10;58.00;;;;;;5052031;28;20029;-74
2023/06/19 05:41:09;;;;;;;6.22;5.13;;;27.10;57.20;;;;;;5052403;28;20043;-74
2023/06/19 05:43:35;;;;;;;5.95;3.92;;;27.20;58.20;;;;;;5051813;28;20029;-75
2023/06/19 05:46:02;;;;;;;7.88;6.35;;;27.10;58.00;;;;;;5052020;28;20120;-78
2023/06/19 05:48:28;;;;;;;8.90;6.50;;;27.30;58.10;;;;;;5034664;28;20033;-74
2023/06/19 05:50:54;;;;;;;11.85;7.07;;;27.30;58.60;;;;;;5052079;28;20044;-74
2023/06/19 05:53:20;;;;;;;8.82;5.72;;;27.20;58.00;;;;;;5052004;28;20033;-75
2023/06/19 05:55:46;;;;;;;5.13;3.00;;;27.20;57.60;;;;;;5052086;28;20178;-75
2023/06/19 05:58:12;;;;;;;3.35;3.00;;;26.90;57.00;;;;;;5050965;28;20033;-76
2023/06/19 06:00:38;;;;;;;3.17;2.83;;;27.30;57.40;;;;;;5050949;28;20033;-73
2023/06/19 06:03:05;;;;;;;5.47;2.67;;;27.30;56.80;;;;;;5051728;28;20143;-70
2023/06/19 06:05:31;;;;;;;4.85;2.80;;;27.20;56.80;;;;;;5049699;28;20037;-71
2023/06/19 06:07:57;;;;;;;5.13;2.47;;;27.30;59.00;;;;;;5049202;28;20056;-73
2023/06/19 06:10:25;;;;;;;4.65;3.13;;;27.60;58.60;;;;;;5051132;28;20032;-73
2023/06/19 06:12:50;;;;;;;7.47;2.50;;;27.60;58.40;;;;;;5051321;28;20033;-72
2023/06/19 06:15:17;;;;;;;8.20;4.15;;;27.90;57.10;;;;;;5051212;28;20033;-73
2023/06/19 06:17:43;;;;;;;7.50;3.58;;;28.10;56.90;;;;;;5051225;28;20041;-73
2023/06/19 06:20:12;;;;;;;7.07;3.95;;;28.00;58.00;;;;;;5051324;28;20043;-73
2023/06/19 06:22:40;;;;;;;5.60;4.63;;;28.00;58.60;;;;;;5014452;28;20496;-73
2023/06/19 06:25:07;;;;;;;6.50;4.65;;;27.90;57.80;;;;;;5036134;28;20040;-73
2023/06/19 06:27:33;;;;;;;5.68;3.88;;;27.80;56.50;;;;;;5048966;28;20045;-73
2023/06/19 06:30:03;;;;;;;34.83;9.00;;;27.70;56.90;;;;;;5049644;28;20059;-73
2023/06/19 06:32:31;;;;;;;11.32;5.70;;;27.70;56.80;;;;;;5048252;28;20041;-79
2023/06/19 06:34:58;;;;;;;8.40;4.13;;;27.70;57.20;;;;;;5069661;28;20478;-68
2023/06/19 06:37:25;;;;;;;7.57;4.15;;;27.70;57.70;;;;;;5068606;28;20032;-70
2023/06/19 06:39:51;;;;;;;5.25;3.67;;;27.80;57.10;;;;;;5063853;28;20033;-69
2023/06/19 06:42:18;;;;;;;6.20;3.05;;;27.80;56.80;;;;;;5048664;28;20091;-69
2023/06/19 06:44:45;;;;;;;6.75;3.95;;;28.00;57.60;;;;;;5048575;28;20448;-70
2023/06/19 06:47:11;;;;;;;6.03;3.85;;;28.00;60.00;;;;;;5031769;28;20029;-71
2023/06/19 06:49:37;;;;;;;4.95;4.05;;;28.10;61.00;;;;;;5048656;28;20036;-71
2023/06/19 06:52:04;;;;;;;6.68;4.10;;;28.10;59.20;;;;;;5032097;28;20073;-70
2023/06/19 06:54:31;;;;;;;7.90;5.05;;;28.30;61.10;;;;;;5031780;28;20041;-71
2023/06/19 06:56:58;;;;;;;8.52;4.50;;;28.20;59.10;;;;;;5056000;28;20031;-70
2023/06/19 06:59:27;;;;;;;13.15;5.57;;;28.10;58.60;;;;;;5069587;28;20448;-68
2023/06/19 07:01:54;;;;;;;15.82;6.28;;;28.20;57.70;;;;;;5070893;28;20043;-70
2023/06/19 07:04:21;;;;;;;7.03;4.05;;;28.20;57.60;;;;;;5070733;28;20024;-70
2023/06/19 07:06:47;;;;;;;6.18;4.50;;;28.30;59.00;;;;;;5071006;28;20448;-70
2023/06/19 07:09:17;;;;;;;12.80;4.95;;;28.40;59.20;;;;;;5058451;28;20481;-68
2023/06/19 07:11:43;;;;;;;11.00;6.80;;;28.50;62.00;;;;;;5052250;28;20036;-70
2023/06/19 07:14:09;;;;;;;9.65;4.75;;;28.40;63.50;;;;;;5053256;28;20091;-69
2023/06/19 07:16:35;;;;;;;8.90;5.30;;;28.60;63.40;;;;;;5054513;28;20037;-70
2023/06/19 07:19:01;;;;;;;13.23;8.23;;;28.50;65.00;;;;;;5054608;28;20116;-71
2023/06/19 07:21:29;;;;;;;9.68;4.97;;;28.70;66.40;;;;;;5036070;28;20098;-70
2023/06/19 07:23:55;;;;;;;10.85;4.88;;;28.70;62.70;;;;;;5053083;28;20060;-70
2023/06/19 07:26:21;;;;;;;14.88;6.25;;;28.80;62.90;;;;;;5054458;28;20037;-69
2023/06/19 07:28:47;;;;;;;11.57;5.30;;;28.80;59.20;;;;;;5052897;28;20087;-70
2023/06/19 07:31:13;;;;;;;13.07;5.43;;;28.90;60.90;;;;;;5060444;28;20040;-69
2023/06/19 07:33:39;;;;;;;14.60;8.02;;;29.00;61.70;;;;;;5074120;28;20032;-69
2023/06/19 07:36:05;;;;;;;11.23;5.15;;;29.20;63.40;;;;;;5073855;28;20040;-70
2023/06/19 07:38:31;;;;;;;11.65;4.03;;;29.20;62.90;;;;;;5073953;28;20037;-70
2023/06/19 07:40:57;;;;;;;8.02;4.70;;;29.30;62.80;;;;;;5072595;28;20590;-70
2023/06/19 07:43:23;;;;;;;7.40;4.13;;;29.40;65.00;;;;;;5073705;28;20043;-70
2023/06/19 07:45:50;;;;;;;6.40;4.22;;;29.50;62.90;;;;;;5073754;28;20045;-72
2023/06/19 07:48:16;;;;;;;15.70;5.25;;;29.40;59.30;;;;;;5073892;28;20079;-73
2023/06/19 07:50:42;;;;;;;10.55;5.97;;;29.40;61.50;;;;;;5072435;28;20108;-71
2023/06/19 07:53:08;;;;;;;15.43;6.63;;;29.50;61.10;;;;;;5055765;28;20369;-72
2023/06/19 07:55:37;;;;;;;10.05;4.97;;;29.80;60.50;;;;;;5073333;28;20054;-71
2023/06/19 07:58:03;;;;;;;6.25;5.00;;;29.70;65.10;;;;;;5073017;28;20495;-71
2023/06/19 08:00:29;;;;;;;6.47;4.03;;;29.70;63.60;;;;;;5073390;28;20024;-71
2023/06/19 08:02:55;;;;;;;5.95;3.63;;;29.80;57.00;;;;;;5073413;28;20029;-71
2023/06/19 08:05:21;;;;;;;5.13;4.05;;;29.80;56.40;;;;;;5073373;28;20071;-71
2023/06/19 08:07:47;;;;;;;9.23;5.07;;;29.80;55.00;;;;;;5069144;28;20029;-72
2023/06/19 08:10:13;;;;;;;9.00;4.78;;;29.90;56.90;;;;;;5041210;28;20135;-72
2023/06/19 08:12:42;;;;;;;6.05;4.05;;;29.90;57.80;;;;;;5068865;28;20033;-71
2023/06/19 08:15:09;;;;;;;8.40;4.38;;;29.80;56.90;;;;;;5065057;28;20032;-72
2023/06/19 08:17:35;;;;;;;7.85;3.55;;;29.80;56.50;;;;;;5057792;28;20041;-72
2023/06/19 08:20:02;;;;;;;7.95;4.32;;;29.90;56.80;;;;;;5029821;28;20045;-73
2023/06/19 08:22:32;;;;;;;6.00;4.22;;;29.90;54.70;;;;;;5044495;28;20053;-71
2023/06/19 08:24:58;;;;;;;6.68;3.38;;;30.00;55.10;;;;;;5048018;28;20453;-71
2023/06/19 08:27:24;;;;;;;5.50;3.47;;;29.80;54.50;;;;;;5043203;28;20060;-70
2023/06/19 08:29:50;;;;;;;8.48;3.80;;;29.90;55.00;;;;;;5045490;28;20436;-70
2023/06/19 08:32:17;;;;;;;5.72;3.65;;;29.80;54.90;;;;;;5065268;28;20041;-71
2023/06/19 08:34:43;;;;;;;4.35;3.13;;;29.80;56.70;;;;;;5070239;28;20127;-71
2023/06/19 08:37:09;;;;;;;5.55;3.20;;;29.80;57.80;;;;;;5070254;28;20119;-71
2023/06/19 08:39:38;;;;;;;4.63;3.42;;;29.90;56.50;;;;;;5070453;28;20041;-71
2023/06/19 08:42:08;;;;;;;5.32;4.55;;;29.70;55.60;;;;;;5053324;28;20489;-71
2023/06/19 08:44:35;;;;;;;4.20;3.22;;;29.70;57.50;;;;;;5062310;28;20040;-71
2023/06/19 08:47:05;;;;;;;3.38;3.08;;;29.50;56.30;;;;;;5050204;28;20116;-71
2023/06/19 08:49:35;;;;;;;4.28;3.75;;;29.60;54.40;;;;;;5050594;28;20091;-70
2023/06/19 08:52:04;;;;;;;9.82;4.40;;;29.60;54.30;;;;;;5049429;28;20408;-70
2023/06/19 08:54:31;;;;;;;5.32;3.15;;;29.60;54.50;;;;;;5051566;28;20398;-70
2023/06/19 08:57:03;;;;;;;4.60;3.85;;;29.50;56.60;;;;;;5051345;28;20033;-71
2023/06/19 08:59:31;;;;;;;4.53;3.72;;;29.40;54.80;;;;;;5052793;28;20044;-71
2023/06/19 09:01:58;;;;;;;4.47;3.60;;;29.30;56.00;;;;;;5052702;28;20037;-71
2023/06/19 09:04:31;;;;;;;3.85;3.45;;;29.40;55.70;;;;;;5051566;28;20029;-71
2023/06/19 09:07:00;;;;;;;4.72;3.33;;;29.40;54.90;;;;;;5052409;28;20462;-71
2023/06/19 09:09:27;;;;;;;3.67;3.38;;;29.50;54.90;;;;;;5051184;28;20718;-71
2023/06/19 09:12:05;;;;;;;3.85;3.55;;;29.40;55.70;;;;;;5052366;28;20043;-71
2023/06/19 09:14:38;;;;;;;6.75;3.75;;;29.40;57.20;;;;;;5052105;28;20094;-71
2023/06/19 09:17:07;;;;;;;5.55;4.15;;;29.50;57.20;;;;;;5051892;28;20037;-72
2023/06/19 09:19:37;;;;;;;3.65;3.33;;;29.50;55.60;;;;;;5051515;28;20045;-71
2023/06/19 09:22:06;;;;;;;5.68;3.58;;;29.30;55.20;;;;;;5050971;28;20413;-71
2023/06/19 09:24:40;;;;;;;10.13;9.20;;;29.20;55.60;;;;;;5051845;28;20037;-71
2023/06/19 09:27:13;;;;;;;6.43;3.80;;;29.30;55.70;;;;;;5051419;28;20032;-71
2023/06/19 09:29:41;;;;;;;6.05;3.47;;;29.30;54.80;;;;;;5052234;28;20525;-71
2023/06/19 09:32:24;;;;;;;3.42;3.00;;;29.30;54.10;;;;;;5052192;28;20071;-72
2023/06/19 09:34:59;;;;;;;4.50;3.00;;;29.20;53.60;;;;;;5050147;28;20036;-72
2023/06/19 09:37:32;;;;;;;3.75;3.30;;;29.30;53.50;;;;;;5052265;28;20036;-72
2023/06/19 09:40:10;;;;;;;3.50;3.20;;;29.20;53.50;;;;;;5034589;28;20061;-74
2023/06/19 09:42:43;;;;;;;2.78;2.55;;;29.20;53.10;;;;;;5050150;28;20520;-73
2023/06/19 09:45:26;;;;;;;3.05;2.72;;;29.10;53.20;;;;;;5044696;28;20036;-74
2023/06/19 09:47:55;;;;;;;3.97;2.90;;;29.10;53.20;;;;;;5048454;28;20044;-73
2023/06/19 09:50:27;;;;;;;3.55;3.25;;;29.00;53.20;;;;;;5058637;28;20048;-74
2023/06/19 09:52:55;;;;;;;4.43;3.20;;;29.10;53.50;;;;;;5061989;28;20033;-73
2023/06/19 09:55:24;;;;;;;2.95;2.75;;;28.90;53.20;;;;;;5069025;28;20461;-74
2023/06/19 09:57:51;;;;;;;3.42;3.13;;;28.90;53.40;;;;;;5057545;28;20028;-74
2023/06/19 10:00:22;;;;;;;3.50;3.20;;;28.90;53.60;;;;;;5072292;28;20046;-74
2023/06/19 10:02:49;;;;;;;4.28;3.35;;;28.90;53.80;;;;;;5063477;28;20024;-72
2023/06/19 10:05:15;;;;;;;4.68;3.65;;;28.90;54.00;;;;;;5062661;28;20117;-71
2023/06/19 10:07:43;;;;;;;5.35;4.10;;;28.80;54.20;;;;;;5065694;28;20033;-67
2023/06/19 10:10:12;;;;;;;5.75;3.55;;;28.90;54.30;;;;;;5056768;28;20037;-69
2023/06/19 10:12:47;;;;;;;5.90;3.20;;;28.90;54.50;;;;;;5052269;28;20028;-72
2023/06/19 10:15:21;;;;;;;3.78;3.38;;;28.70;54.30;;;;;;5069854;28;20429;-72
2023/06/19 10:18:05;;;;;;;5.20;3.47;;;28.80;54.70;;;;;;5047431;28;20028;-72
2023/06/19 10:20:32;;;;;;;4.38;3.95;;;28.90;55.10;;;;;;5051426;28;20044;-74
2023/06/19 10:22:59;;;;;;;6.03;3.72;;;28.70;55.30;;;;;;5051016;28;20049;-73
2023/06/19 10:25:29;;;;;;;6.00;3.78;;;28.70;55.40;;;;;;5050031;28;20044;-73
2023/06/19 10:27:55;;;;;;;3.80;3.50;;;28.80;55.50;;;;;;5051262;28;20033;-73
2023/06/19 10:30:22;;;;;;;4.63;3.60;;;28.80;55.50;;;;;;5050990;28;20083;-73
2023/06/19 10:32:48;;;;;;;7.00;3.70;;;28.80;55.60;;;;;;5050997;28;20029;-72
2023/06/19 10:35:16;;;;;;;5.13;4.22;;;28.70;55.70;;;;;;5050994;28;20024;-72
2023/06/19 10:37:44;;;;;;;4.53;4.15;;;28.80;55.70;;;;;;5051009;28;20481;-71
2023/06/19 10:40:12;;;;;;;4.55;4.15;;;28.70;55.50;;;;;;5051191;28;20116;-72
2023/06/19 10:42:41;;;;;;;4.90;3.97;;;28.70;55.40;;;;;;5033354;28;20044;-73
2023/06/19 10:45:09;;;;;;;4.78;4.32;;;28.50;55.60;;;;;;5068248;28;20518;-73
2023/06/19 10:47:37;;;;;;;5.15;4.65;;;28.50;55.60;;;;;;5054996;28;20049;-73
2023/06/19 10:50:04;;;;;;;5.03;4.40;;;28.60;56.00;;;;;;5072261;28;20072;-73
2023/06/19 10:52:31;;;;;;;4.72;3.95;;;28.70;56.50;;;;;;5072642;28;20139;-72
2023/06/19 10:54:59;;;;;;;5.43;4.20;;;28.60;58.00;;;;;;5072180;28;20040;-71
2023/06/19 10:57:31;;;;;;;6.30;4.88;;;28.60;60.40;;;;;;5055630;28;20079;-71
2023/06/19 10:59:58;;;;;;;4.60;3.73;;;28.60;62.40;;;;;;5072244;28;20347;-72
2023/06/19 11:02:25;;;;;;;4.38;3.97;;;28.70;57.90;;;;;;5072230;28;20039;-72
2023/06/19 11:04:56;;;;;;;6.72;4.00;;;28.60;57.20;;;;;;5071810;28;20399;-71
2023/06/19 11:07:23;;;;;;;4.43;3.87;;;28.60;57.30;;;;;;5071840;28;20040;-71
2023/06/19 11:09:49;;;;;;;4.53;3.85;;;28.50;57.60;;;;;;5072044;28;20527;-70
2023/06/19 11:12:21;;;;;;;4.93;4.15;;;28.60;57.80;;;;;;5071950;28;20101;-71
2023/06/19 11:14:49;;;;;;;3.42;3.22;;;28.50;57.90;;;;;;5071805;28;20040;-71
2023/06/19 11:17:18;;;;;;;3.60;3.30;;;28.50;57.70;;;;;;5054596;28;20052;-69
2023/06/19 11:19:44;;;;;;;5.15;3.88;;;28.40;57.50;;;;;;5052966;28;20067;-70
2023/06/19 11:22:11;;;;;;;3.85;3.53;;;28.50;57.50;;;;;;5054595;28;20823;-72
2023/06/19 11:24:42;;;;;;;3.17;2.88;;;28.60;58.20;;;;;;5054447;28;20040;-72
2023/06/19 11:27:28;;;;;;;5.45;4.18;;;28.60;58.60;;;;;;5054163;28;20086;-73
2023/06/19 11:29:58;;;;;;;5.57;3.33;;;28.80;57.90;;;;;;5053142;28;20043;-71
2023/06/19 11:32:31;;;;;;;4.13;3.78;;;29.10;63.70;;;;;;5069994;28;20036;-71
2023/06/19 11:35:04;;;;;;;4.38;3.95;;;29.50;68.40;;;;;;5073904;28;20123;-70
2023/06/19 11:37:30;;;;;;;4.75;4.07;;;29.40;61.40;;;;;;5072438;28;20090;-70
2023/06/19 11:39:57;;;;;;;4.05;3.63;;;29.00;59.20;;;;;;5073848;28;20078;-71
2023/06/19 11:42:25;;;;;;;3.30;3.00;;;29.10;58.10;;;;;;5073857;28;20062;-73
2023/06/19 11:44:54;;;;;;;3.75;3.03;;;29.10;57.50;;;;;;5072644;28;20040;-73
2023/06/19 11:47:21;;;;;;;3.53;3.15;;;28.80;56.60;;;;;;5072301;28;20048;-72
2023/06/19 11:49:50;;;;;;;3.90;3.00;;;28.80;56.50;;;;;;5073914;28;20033;-73
2023/06/19 11:52:17;;;;;;;4.03;3.25;;;28.90;56.50;;;;;;5033851;28;20112;-72
2023/06/19 11:54:43;;;;;;;3.38;3.08;;;28.80;56.40;;;;;;5032596;28;20044;-72
2023/06/19 11:57:13;;;;;;;3.08;2.78;;;28.80;56.40;;;;;;5033349;28;20041;-72
2023/06/19 11:59:40;;;;;;;6.22;2.53;;;28.70;56.40;;;;;;5033024;28;20033;-71
2023/06/19 12:02:07;;;;;;;5.35;3.10;;;28.70;56.30;;;;;;5032317;28;20025;-71
2023/06/19 12:04:33;;;;;;;4.93;3.78;;;28.80;56.10;;;;;;5032212;28;20063;-73
2023/06/19 12:07:00;;;;;;;3.30;2.92;;;28.80;56.00;;;;;;5033493;28;20315;-73
2023/06/19 12:09:27;;;;;;;3.42;3.13;;;28.80;56.10;;;;;;5033254;28;20402;-73
2023/06/19 12:11:53;;;;;;;3.28;2.97;;;28.70;56.10;;;;;;5033539;28;20379;-73
2023/06/19 12:14:20;;;;;;;3.03;2.75;;;28.80;56.10;;;;;;5032257;28;20037;-72
2023/06/19 12:16:47;;;;;;;4.28;3.22;;;28.60;56.10;;;;;;5045032;28;20028;-71
2023/06/19 12:19:13;;;;;;;4.28;2.45;;;28.70;56.20;;;;;;5050579;28;20041;-74
2023/06/19 12:21:39;;;;;;;4.57;2.40;;;28.60;56.20;;;;;;5050553;28;20048;-71
2023/06/19 12:24:06;;;;;;;5.68;2.90;;;28.70;56.10;;;;;;5050361;28;20037;-71
2023/06/19 12:26:36;;;;;;;3.45;2.85;;;28.70;56.10;;;;;;5033788;28;20072;-71
2023/06/19 12:29:06;;;;;;;3.15;2.83;;;28.50;56.20;;;;;;5050312;28;20059;-71
2023/06/19 12:31:33;;;;;;;2.80;2.60;;;28.70;56.30;;;;;;5033831;28;20049;-69
2023/06/19 12:34:01;;;;;;;3.78;3.33;;;28.60;56.50;;;;;;5049987;28;20055;-71
2023/06/19 12:36:27;;;;;;;2.92;2.63;;;28.70;56.60;;;;;;5050086;28;20040;-71
2023/06/19 12:38:54;;;;;;;4.38;3.03;;;28.60;56.80;;;;;;5050373;28;20124;-69
2023/06/19 12:41:21;;;;;;;3.55;2.88;;;28.60;57.00;;;;;;5050396;28;20076;-71
2023/06/19 12:43:47;;;;;;;5.15;2.40;;;28.60;56.90;;;;;;5050472;28;20052;-71
2023/06/19 12:46:13;;;;;;;3.78;2.88;;;28.40;57.00;;;;;;5049936;28;20052;-72